Time;durP1;ratioP1;P1;durP2;ratioP2;P2;SDS_P1;SDS_P2;PMS_P1;PMS_P2;Temp;Humidity;BMP_temperature;BMP_pressure;BME280_temperature;BME280_humidity;BME280_pressure;Samples;Min_cycle;Max_cycle;Signal;HPM_P1;HPM_P2
2022/07/05 09:22:17;;;;;;;9.20;2.03;;;;;;;;;;5106962;27;1310713;-47
2022/07/05 09:24:44;;;;;;;11.18;4.30;;;;;;;;;;5124964;27;20047;-46
2022/07/05 09:27:10;;;;;;;23.77;4.00;;;;;;;;;;5129084;27;20103;-50
2022/07/05 09:29:35;;;;;;;13.25;2.80;;;;;;;;;;5129329;27;20443;-47
2022/07/05 09:32:01;;;;;;;28.77;2.78;;;;;;;;;;5129163;27;20106;-48
2022/07/05 09:34:29;;;;;;;12.25;2.25;;;;;;;;;;5129130;28;20023;-47
2022/07/05 09:37:05;;;;;;;10.63;2.40;;;;;;;;;;5128734;27;20027;-46
2022/07/05 09:39:33;;;;;;;16.98;2.60;;;;;;;;;;5129117;27;20059;-48
2022/07/05 09:42:13;;;;;;;7.22;2.85;;;;;;;;;;5128665;28;20027;-47
2022/07/05 09:44:44;;;;;;;29.27;3.05;;;;;;;;;;5128840;28;20414;-45
2022/07/05 09:47:12;;;;;;;22.00;3.00;;;;;;;;;;5128351;27;20445;-45
2022/07/05 09:49:40;;;;;;;11.43;2.60;;;;;;;;;;5128939;27;20043;-44
2022/07/05 09:52:06;;;;;;;9.23;2.10;;;;;;;;;;5128550;27;20115;-45
2022/07/05 09:54:32;;;;;;;20.30;2.17;;;;;;;;;;5128505;27;20080;-44
2022/07/05 09:56:57;;;;;;;10.02;1.70;;;;;;;;;;5128098;27;20020;-44
2022/07/05 09:59:22;;;;;;;14.60;2.75;;;;;;;;;;5128800;27;20490;-45
2022/07/05 10:01:48;;;;;;;104.50;7.40;;;;;;;;;;5127664;28;20023;-45
2022/07/05 10:04:15;;;;;;;44.72;4.60;;;;;;;;;;5128397;27;20047;-45
2022/07/05 10:06:40;;;;;;;19.92;2.30;;;;;;;;;;5128374;27;20080;-45
2022/07/05 10:09:07;;;;;;;19.98;2.35;;;;;;;;;;5128252;28;20024;-44
2022/07/05 10:11:33;;;;;;;22.67;1.73;;;;;;;;;;5128362;28;20394;-43
2022/07/05 10:14:02;;;;;;;8.85;1.50;;;;;;;;;;5128460;27;20039;-44
2022/07/05 10:16:27;;;;;;;10.18;1.73;;;;;;;;;;5128051;27;20038;-45
2022/07/05 10:18:56;;;;;;;8.85;2.00;;;;;;;;;;5128263;28;20023;-48
2022/07/05 10:21:23;;;;;;;5.73;1.63;;;;;;;;;;5128036;27;20050;-49
2022/07/05 10:23:53;;;;;;;16.45;2.08;;;;;;;;;;5127676;27;20037;-45
2022/07/05 10:26:20;;;;;;;14.07;1.90;;;;;;;;;;5128200;27;20066;-46
2022/07/05 10:28:51;;;;;;;7.95;1.63;;;;;;;;;;5127775;27;20095;-45
2022/07/05 10:31:17;;;;;;;8.32;2.10;;;;;;;;;;5124980;27;20027;-44
2022/07/05 10:33:44;;;;;;;9.15;1.73;;;;;;;;;;5114655;28;20035;-47
2022/07/05 10:36:11;;;;;;;2.35;1.60;;;;;;;;;;5115729;28;20027;-45
2022/07/05 10:38:42;;;;;;;4.45;1.73;;;;;;;;;;5115153;28;20032;-48
2022/07/05 10:41:10;;;;;;;8.40;3.30;;;;;;;;;;5115537;28;20050;-49
2022/07/05 10:43:36;;;;;;;6.68;1.90;;;;;;;;;;5115396;28;20028;-45
2022/07/05 10:46:06;;;;;;;12.77;2.72;;;;;;;;;;5115424;28;20118;-46
2022/07/05 10:48:32;;;;;;;4.13;1.63;;;;;;;;;;5115841;28;20038;-44
2022/07/05 10:51:14;;;;;;;3.75;1.70;;;;;;;;;;5115436;28;20019;-47
2022/07/05 10:53:39;;;;;;;7.18;2.25;;;;;;;;;;5115770;28;20093;-44
2022/07/05 10:56:05;;;;;;;9.30;3.20;;;;;;;;;;5115639;28;20027;-45
2022/07/05 10:58:46;;;;;;;11.23;2.25;;;;;;;;;;5114180;28;20088;-44
2022/07/05 11:01:11;;;;;;;4.60;2.35;;;;;;;;;;5113680;28;20442;-46
2022/07/05 11:04:15;;;;;;;8.55;2.40;;;;;;;;;;5113847;28;20055;-46
2022/07/05 11:06:46;;;;;;;24.90;5.78;;;;;;;;;;5113535;28;20031;-49
2022/07/05 11:09:11;;;;;;;10.30;3.65;;;;;;;;;;5113487;28;20055;-46
2022/07/05 11:11:42;;;;;;;13.88;2.90;;;;;;;;;;5113493;28;20058;-48
2022/07/05 11:14:19;;;;;;;11.68;4.70;;;;;;;;;;5113638;28;20409;-44
2022/07/05 11:16:45;;;;;;;5.55;2.55;;;;;;;;;;5112486;28;20528;-45
2022/07/05 11:19:17;;;;;;;6.45;3.08;;;;;;;;;;5112819;28;20015;-45
2022/07/05 11:22:02;;;;;;;7.47;3.17;;;;;;;;;;5112478;28;20130;-45
2022/07/05 11:24:30;;;;;;;10.88;5.05;;;;;;;;;;5113216;28;20036;-45
2022/07/05 11:27:00;;;;;;;6.45;3.65;;;;;;;;;;5112523;28;20051;-45
2022/07/05 11:29:44;;;;;;;5.88;3.42;;;;;;;;;;5113202;28;20032;-40
2022/07/05 11:32:13;;;;;;;9.82;3.97;;;;;;;;;;5112697;28;20027;-41
2022/07/05 11:34:39;;;;;;;6.47;4.45;;;;;;;;;;5113396;28;20043;-41
2022/07/05 11:37:13;;;;;;;6.45;3.33;;;;;;;;;;5113066;28;20382;-41
2022/07/05 11:39:40;;;;;;;5.70;4.05;;;;;;;;;;5111999;28;20028;-44
2022/07/05 11:42:05;;;;;;;10.07;4.47;;;;;;;;;;5112426;28;20038;-41
2022/07/05 11:44:34;;;;;;;7.38;3.92;;;;;;;;;;5111615;28;20031;-41
2022/07/05 11:47:01;;;;;;;6.10;3.45;;;;;;;;;;5111844;28;20817;-51
2022/07/05 11:49:26;;;;;;;9.05;5.50;;;;;;;;;;5112948;28;20031;-41
2022/07/05 11:52:02;;;;;;;7.55;3.80;;;;;;;;;;5118596;28;20424;-40
2022/07/05 11:54:33;;;;;;;5.57;3.55;;;;;;;;;;5118113;28;20072;-41
2022/07/05 11:57:01;;;;;;;9.18;3.78;;;;;;;;;;5112404;28;20516;-46
2022/07/05 11:59:27;;;;;;;11.18;3.75;;;;;;;;;;5112335;28;20105;-49
2022/07/05 12:01:53;;;;;;;4.97;2.97;;;;;;;;;;5111960;27;20043;-59
2022/07/05 12:04:30;;;;;;;5.07;3.50;;;;;;;;;;5112195;28;20077;-60
2022/07/05 12:06:56;;;;;;;4.60;3.38;;;;;;;;;;5112264;28;20110;-52
2022/07/05 12:15:02;;;;;;;4.22;2.88;;;;;;;;;;5112614;28;20255;-41
2022/07/05 12:17:28;;;;;;;5.47;3.35;;;;;;;;;;5111352;28;20144;-40
2022/07/05 12:19:54;;;;;;;8.82;3.63;;;;;;;;;;5110988;28;20066;-40
2022/07/05 12:22:30;;;;;;;4.13;2.70;;;;;;;;;;5112263;28;20023;-40
2022/07/05 12:24:58;;;;;;;6.65;3.28;;;;;;;;;;5112176;28;20019;-40
2022/07/05 12:27:24;;;;;;;8.50;4.45;;;;;;;;;;5110812;28;20039;-49
2022/07/05 12:29:49;;;;;;;5.22;3.40;;;;;;;;;;5111830;28;20027;-42
2022/07/05 12:32:14;;;;;;;5.28;3.42;;;;;;;;;;5108960;28;20025;-55
2022/07/05 12:34:40;;;;;;;6.47;4.10;;;;;;;;;;5112283;28;20479;-40
2022/07/05 12:37:05;;;;;;;10.82;5.15;;;;;;;;;;5114234;28;20101;-59
2022/07/05 12:39:31;;;;;;;5.95;2.92;;;;;;;;;;5112973;28;20039;-40
2022/07/05 12:41:56;;;;;;;9.90;3.80;;;;;;;;;;5111344;28;20028;-61
2022/07/05 12:44:22;;;;;;;6.72;3.53;;;;;;;;;;5110407;28;20073;-45
2022/07/05 12:46:51;;;;;;;14.00;6.60;;;;;;;;;;5110496;28;20534;-41
2022/07/05 12:49:17;;;;;;;3.80;3.05;;;;;;;;;;5110279;28;20038;-45
2022/07/05 12:51:44;;;;;;;4.20;2.35;;;;;;;;;;5110544;28;20070;-50
2022/07/05 13:00:07;;;;;;;3.40;2.67;;;;;;;;;;5109106;28;20035;-56
2022/07/05 13:02:38;;;;;;;5.55;3.38;;;;;;;;;;5108373;28;20108;-62
2022/07/05 13:05:06;;;;;;;6.85;3.33;;;;;;;;;;5107634;28;20110;-49
2022/07/05 13:07:31;;;;;;;5.72;2.17;;;;;;;;;;5110502;28;20023;-58
2022/07/05 13:10:22;;;;;;;5.07;2.53;;;;;;;;;;5111637;28;20497;-52
2022/07/05 13:12:49;;;;;;;3.85;2.10;;;;;;;;;;5111662;28;20096;-63
2022/07/05 13:15:15;;;;;;;3.22;2.28;;;;;;;;;;5111608;28;20778;-53
2022/07/05 13:17:41;;;;;;;8.60;3.70;;;;;;;;;;5111192;28;20653;-62
2022/07/05 13:20:07;;;;;;;7.68;3.10;;;;;;;;;;5111183;28;20056;-47
2022/07/05 13:22:32;;;;;;;8.25;3.83;;;;;;;;;;5111259;28;20028;-58
2022/07/05 13:24:58;;;;;;;9.73;5.03;;;;;;;;;;5111512;28;20035;-59
2022/07/05 13:27:23;;;;;;;11.00;4.70;;;;;;;;;;5111213;28;20027;-50
2022/07/05 13:29:49;;;;;;;5.05;3.38;;;;;;;;;;5111161;28;20027;-61
2022/07/05 13:32:16;;;;;;;6.43;4.10;;;;;;;;;;5111290;28;20031;-44
2022/07/05 13:34:42;;;;;;;10.50;5.53;;;;;;;;;;5111242;28;20039;-63
2022/07/05 13:37:08;;;;;;;8.65;4.32;;;;;;;;;;5111290;28;20028;-55
2022/07/05 13:39:34;;;;;;;7.45;3.80;;;;;;;;;;5111042;28;20081;-61
2022/07/05 13:41:59;;;;;;;5.05;3.03;;;;;;;;;;5110828;28;20023;-62
2022/07/05 13:44:25;;;;;;;9.20;4.95;;;;;;;;;;5111258;28;20427;-61
2022/07/05 13:46:51;;;;;;;9.65;6.55;;;;;;;;;;5110646;28;20041;-62
2022/07/05 13:49:16;;;;;;;2.97;2.67;;;;;;;;;;5110724;28;20032;-44
2022/07/05 13:51:42;;;;;;;8.52;4.50;;;;;;;;;;5111014;28;20360;-50
2022/07/05 13:54:08;;;;;;;8.30;3.97;;;;;;;;;;5110937;28;20483;-47
2022/07/05 13:56:35;;;;;;;6.15;4.13;;;;;;;;;;5110263;28;20035;-61
2022/07/05 13:59:01;;;;;;;14.18;5.25;;;;;;;;;;5110807;28;20053;-50
2022/07/05 14:01:26;;;;;;;10.45;4.15;;;;;;;;;;5110849;28;20497;-40
2022/07/05 14:03:58;;;;;;;5.68;3.55;;;;;;;;;;5111099;28;20031;-55
2022/07/05 14:06:24;;;;;;;4.18;2.45;;;;;;;;;;5111273;28;20028;-62
2022/07/05 14:08:49;;;;;;;54.35;41.65;;;;;;;;;;5114851;28;20360;-62
2022/07/05 14:11:14;;;;;;;5.32;2.42;;;;;;;;;;5114647;28;20031;-61
2022/07/05 14:13:41;;;;;;;2.90;1.95;;;;;;;;;;5114500;28;20027;-57
2022/07/05 14:16:07;;;;;;;1.75;1.65;;;;;;;;;;5114653;28;20031;-60
2022/07/05 14:18:33;;;;;;;2.47;1.70;;;;;;;;;;5114357;28;20102;-60
2022/07/05 14:20:58;;;;;;;2.55;2.30;;;;;;;;;;5114345;28;20616;-52
2022/07/05 14:23:24;;;;;;;4.07;1.65;;;;;;;;;;5114500;28;20035;-60
2022/07/05 14:25:49;;;;;;;1.83;1.60;;;;;;;;;;5114008;28;20020;-61
2022/07/05 14:28:15;;;;;;;1.70;1.60;;;;;;;;;;5114282;28;20036;-61
2022/07/05 14:30:42;;;;;;;5.35;1.75;;;;;;;;;;5114624;28;20031;-60
2022/07/05 14:33:08;;;;;;;3.58;2.17;;;;;;;;;;5114298;28;20424;-58
2022/07/05 14:35:34;;;;;;;1.65;1.55;;;;;;;;;;5113848;28;20016;-60
2022/07/05 14:37:59;;;;;;;2.10;1.42;;;;;;;;;;5113606;28;20414;-60
2022/07/05 14:40:26;;;;;;;1.80;1.70;;;;;;;;;;5113738;28;20030;-62
2022/07/05 14:42:55;;;;;;;3.20;1.55;;;;;;;;;;5113190;27;20106;-40
2022/07/05 14:45:21;;;;;;;4.78;1.70;;;;;;;;;;5113597;27;20038;-60
2022/07/05 14:47:47;;;;;;;3.38;1.90;;;;;;;;;;5113955;28;20047;-63
2022/07/05 14:50:13;;;;;;;1.73;1.60;;;;;;;;;;5114285;28;20059;-62
2022/07/05 14:52:38;;;;;;;2.08;1.50;;;;;;;;;;5113865;28;20120;-53
2022/07/05 14:55:04;;;;;;;1.70;1.60;;;;;;;;;;5113956;28;20024;-60
2022/07/05 14:57:30;;;;;;;6.50;1.88;;;;;;;;;;5113603;28;20026;-46
2022/07/05 14:59:55;;;;;;;3.72;1.70;;;;;;;;;;5113652;28;20027;-46
2022/07/05 15:02:20;;;;;;;3.05;1.50;;;;;;;;;;5113874;28;20027;-51
2022/07/05 15:04:46;;;;;;;1.80;1.70;;;;;;;;;;5113472;28;20679;-56
2022/07/05 15:07:11;;;;;;;1.40;1.30;;;;;;;;;;5113557;28;20024;-60
2022/07/05 15:09:37;;;;;;;1.77;1.67;;;;;;;;;;5113499;28;20023;-41
2022/07/05 15:12:02;;;;;;;1.70;1.60;;;;;;;;;;5113380;28;20414;-58
2022/07/05 15:14:28;;;;;;;3.40;1.63;;;;;;;;;;5113466;28;20031;-59
2022/07/05 15:16:56;;;;;;;4.20;1.80;;;;;;;;;;5113394;28;20023;-61
2022/07/05 15:19:22;;;;;;;3.10;1.75;;;;;;;;;;5113450;28;20164;-62
2022/07/05 15:21:49;;;;;;;2.58;1.70;;;;;;;;;;5113150;28;20043;-62
2022/07/05 15:24:15;;;;;;;1.70;1.60;;;;;;;;;;5113227;28;20027;-62
2022/07/05 15:26:40;;;;;;;1.70;1.55;;;;;;;;;;5113097;28;20024;-43
2022/07/05 15:29:08;;;;;;;1.63;1.52;;;;;;;;;;5113254;28;20084;-62
2022/07/05 15:31:35;;;;;;;1.58;1.48;;;;;;;;;;5113294;28;20035;-61
2022/07/05 15:34:03;;;;;;;2.08;1.70;;;;;;;;;;5112902;28;20080;-62
2022/07/05 15:36:32;;;;;;;2.00;1.60;;;;;;;;;;5112559;28;20024;-61
2022/07/05 15:39:03;;;;;;;2.60;2.00;;;;;;;;;;5113127;28;20037;-61
2022/07/05 15:41:30;;;;;;;3.58;1.85;;;;;;;;;;5113192;28;20046;-62
2022/07/05 15:43:56;;;;;;;1.77;1.67;;;;;;;;;;5112747;28;20115;-57
2022/07/05 15:46:21;;;;;;;5.22;1.80;;;;;;;;;;5113150;28;20094;-62
2022/07/05 15:48:49;;;;;;;2.63;1.90;;;;;;;;;;5113004;28;20031;-43
2022/07/05 15:51:18;;;;;;;4.28;1.85;;;;;;;;;;5113028;28;20019;-62
2022/07/05 15:53:44;;;;;;;2.67;1.70;;;;;;;;;;5113110;28;20027;-63
2022/07/05 15:56:10;;;;;;;4.85;1.67;;;;;;;;;;5112982;27;20099;-63
2022/07/05 15:58:37;;;;;;;6.20;1.58;;;;;;;;;;5112556;28;20023;-61
2022/07/05 16:01:03;;;;;;;1.77;1.67;;;;;;;;;;5112503;28;20092;-61
2022/07/05 16:03:32;;;;;;;1.70;1.60;;;;;;;;;;5112901;28;20019;-54
2022/07/05 16:05:58;;;;;;;1.90;1.80;;;;;;;;;;5112477;28;20027;-62
2022/07/05 16:08:24;;;;;;;5.00;2.45;;;;;;;;;;5110781;28;20031;-40
2022/07/05 16:10:49;;;;;;;3.03;1.77;;;;;;;;;;5112328;28;20031;-62
2022/07/05 16:13:15;;;;;;;2.47;1.88;;;;;;;;;;5111104;28;20110;-55
2022/07/05 16:18:26;;;;;;;1.92;1.60;;;;;;;;;;5110733;28;20077;-62
2022/07/05 16:20:51;;;;;;;1.80;1.70;;;;;;;;;;5110596;28;20048;-60
2022/07/05 16:23:17;;;;;;;2.22;1.83;;;;;;;;;;5112155;28;20055;-58
2022/07/05 16:25:42;;;;;;;1.90;1.80;;;;;;;;;;5110307;28;20307;-63
2022/07/05 16:28:08;;;;;;;2.38;1.73;;;;;;;;;;5110293;28;20027;-63
2022/07/05 16:30:33;;;;;;;1.90;1.80;;;;;;;;;;5111450;28;20024;-62
2022/07/05 16:32:58;;;;;;;2.65;1.85;;;;;;;;;;5111754;28;20028;-62
2022/07/05 16:35:24;;;;;;;1.70;1.60;;;;;;;;;;5111994;28;20035;-59
2022/07/05 16:37:51;;;;;;;1.85;1.70;;;;;;;;;;5111954;28;20038;-47
2022/07/05 16:40:16;;;;;;;1.45;1.20;;;;;;;;;;5111371;28;20032;-61
2022/07/05 16:42:41;;;;;;;1.10;1.00;;;;;;;;;;5111919;28;20106;-59
2022/07/05 16:45:08;;;;;;;1.17;1.00;;;;;;;;;;5112005;28;20023;-53
2022/07/05 16:47:37;;;;;;;2.42;1.00;;;;;;;;;;5111678;28;20031;-63
2022/07/05 16:50:03;;;;;;;1.27;1.00;;;;;;;;;;5111630;28;20033;-60
2022/07/05 16:52:29;;;;;;;2.60;1.20;;;;;;;;;;5111647;28;20062;-60
2022/07/05 16:54:54;;;;;;;2.83;1.20;;;;;;;;;;5111660;28;20096;-63
2022/07/05 16:57:20;;;;;;;1.20;1.10;;;;;;;;;;5111832;28;20043;-64
2022/07/05 16:59:45;;;;;;;3.15;1.20;;;;;;;;;;5111674;28;20035;-60
2022/07/05 17:02:11;;;;;;;1.02;1.02;;;;;;;;;;5111736;28;20032;-62
2022/07/05 17:04:36;;;;;;;4.25;1.30;;;;;;;;;;5111514;28;20368;-59
2022/07/05 17:07:02;;;;;;;1.20;1.10;;;;;;;;;;5111666;28;20248;-65
2022/07/05 17:09:27;;;;;;;1.40;1.30;;;;;;;;;;5111596;28;20082;-63
2022/07/05 17:11:53;;;;;;;1.00;1.00;;;;;;;;;;5111325;28;20502;-65
2022/07/05 17:14:18;;;;;;;1.20;1.20;;;;;;;;;;5111659;28;20028;-65
2022/07/05 17:16:44;;;;;;;1.50;1.40;;;;;;;;;;5111614;28;20106;-62
2022/07/05 17:19:09;;;;;;;2.45;1.45;;;;;;;;;;5111222;28;20058;-64
2022/07/05 17:21:37;;;;;;;1.55;1.30;;;;;;;;;;5111204;28;20073;-64
2022/07/05 17:24:03;;;;;;;1.98;1.27;;;;;;;;;;5111490;28;20107;-64
2022/07/05 17:26:29;;;;;;;1.88;1.15;;;;;;;;;;5111407;28;20521;-58
2022/07/05 17:28:54;;;;;;;2.08;1.30;;;;;;;;;;5111130;28;20055;-65
2022/07/05 17:31:20;;;;;;;6.20;1.52;;;;;;;;;;5111162;28;20032;-62
2022/07/05 17:33:47;;;;;;;1.60;1.50;;;;;;;;;;5111194;28;20032;-64
2022/07/05 17:36:13;;;;;;;1.95;1.60;;;;;;;;;;5111265;28;20391;-61
2022/07/05 17:38:40;;;;;;;1.73;1.63;;;;;;;;;;5110979;28;20026;-59
2022/07/05 17:41:07;;;;;;;1.80;1.70;;;;;;;;;;5111144;28;20538;-61
2022/07/05 17:43:33;;;;;;;3.03;1.67;;;;;;;;;;5115073;28;20031;-61
2022/07/05 17:45:58;;;;;;;1.73;1.63;;;;;;;;;;5115432;28;20102;-64
2022/07/05 17:48:25;;;;;;;1.60;1.50;;;;;;;;;;5115467;28;20047;-63
2022/07/05 17:50:51;;;;;;;3.80;1.60;;;;;;;;;;5115357;28;20028;-59
2022/07/05 17:53:17;;;;;;;1.73;1.63;;;;;;;;;;5115413;28;20039;-65
2022/07/05 17:55:42;;;;;;;1.77;1.67;;;;;;;;;;5115011;28;20037;-62
2022/07/05 17:58:07;;;;;;;1.83;1.73;;;;;;;;;;5114968;28;20027;-64
2022/07/05 18:00:33;;;;;;;1.60;1.50;;;;;;;;;;5114996;28;20069;-60
2022/07/05 18:02:59;;;;;;;1.80;1.70;;;;;;;;;;5115014;28;20531;-55
2022/07/05 18:05:25;;;;;;;2.15;1.95;;;;;;;;;;5115187;28;20032;-64
2022/07/05 18:07:52;;;;;;;3.13;1.88;;;;;;;;;;5114832;28;20055;-67
2022/07/05 18:10:17;;;;;;;1.98;1.77;;;;;;;;;;5114664;28;20035;-65
2022/07/05 18:12:43;;;;;;;1.98;1.88;;;;;;;;;;5114627;28;20119;-60
2022/07/05 18:15:08;;;;;;;3.15;1.70;;;;;;;;;;5114800;28;20023;-66
2022/07/05 18:17:34;;;;;;;1.92;1.80;;;;;;;;;;5114863;28;20055;-49
2022/07/05 18:19:59;;;;;;;2.90;1.98;;;;;;;;;;5114227;28;20493;-64
2022/07/05 18:22:25;;;;;;;3.83;2.00;;;;;;;;;;5114781;28;20035;-63
2022/07/05 18:24:50;;;;;;;2.20;2.00;;;;;;;;;;5114736;28;20031;-65
2022/07/05 18:27:16;;;;;;;2.88;2.15;;;;;;;;;;5114689;27;20023;-61
2022/07/05 18:29:41;;;;;;;3.05;2.20;;;;;;;;;;5114293;28;20032;-66
2022/07/05 18:32:07;;;;;;;3.13;2.17;;;;;;;;;;5114398;28;20027;-63
2022/07/05 18:34:34;;;;;;;3.08;2.50;;;;;;;;;;5114260;28;20487;-56
2022/07/05 18:37:00;;;;;;;3.25;2.45;;;;;;;;;;5114230;28;20482;-64
2022/07/05 18:39:25;;;;;;;3.95;2.70;;;;;;;;;;5114348;28;20024;-65
2022/07/05 18:41:51;;;;;;;2.55;2.35;;;;;;;;;;5114414;28;20078;-63
2022/07/05 18:44:17;;;;;;;2.60;2.40;;;;;;;;;;5114087;28;20459;-64
2022/07/05 18:46:42;;;;;;;3.20;2.60;;;;;;;;;;5114169;28;20036;-66
2022/07/05 18:49:08;;;;;;;5.53;3.03;;;;;;;;;;5114093;27;20076;-63
2022/07/05 18:51:34;;;;;;;2.70;2.50;;;;;;;;;;5113513;28;20028;-64
2022/07/05 18:53:59;;;;;;;4.70;2.40;;;;;;;;;;5113477;27;20439;-64
2022/07/05 18:56:25;;;;;;;3.55;2.50;;;;;;;;;;5114082;28;20020;-65
2022/07/05 18:58:51;;;;;;;4.90;2.55;;;;;;;;;;5113870;28;20032;-66
2022/07/05 19:01:18;;;;;;;2.90;2.70;;;;;;;;;;5113955;28;20216;-66
2022/07/05 19:03:43;;;;;;;2.60;2.40;;;;;;;;;;5113753;28;20023;-65
2022/07/05 19:14:21;;;;;;;3.40;3.10;;;;;;;;;;5113927;28;20046;-61
2022/07/05 19:16:47;;;;;;;2.80;2.50;;;;;;;;;;5113404;27;20072;-65
2022/07/05 19:19:12;;;;;;;3.08;2.88;;;;;;;;;;5113369;28;20035;-65
2022/07/05 19:21:38;;;;;;;3.78;2.78;;;;;;;;;;5113247;28;20052;-62
2022/07/05 19:24:04;;;;;;;2.80;2.60;;;;;;;;;;5113598;28;20379;-59
2022/07/05 19:26:29;;;;;;;2.90;2.70;;;;;;;;;;5113252;28;20448;-65
2022/07/05 19:28:55;;;;;;;3.28;2.97;;;;;;;;;;5113133;28;20026;-66
2022/07/05 19:31:20;;;;;;;3.53;2.97;;;;;;;;;;5113193;28;20043;-66
2022/07/05 19:33:45;;;;;;;3.65;2.95;;;;;;;;;;5112998;28;20059;-65
2022/07/05 19:36:11;;;;;;;2.88;2.67;;;;;;;;;;5113139;28;20386;-61
2022/07/05 19:38:36;;;;;;;3.22;2.90;;;;;;;;;;5112955;28;20030;-66
2022/07/05 19:41:02;;;;;;;2.97;2.65;;;;;;;;;;5112983;28;20039;-64
2022/07/05 19:43:30;;;;;;;3.67;2.75;;;;;;;;;;5113267;28;20032;-66
2022/07/05 19:45:57;;;;;;;3.00;2.80;;;;;;;;;;5113090;28;20032;-64
2022/07/05 19:48:23;;;;;;;2.92;2.72;;;;;;;;;;5112905;28;20041;-66
2022/07/05 19:50:49;;;;;;;2.90;2.65;;;;;;;;;;5112974;28;20066;-59
2022/07/05 19:53:16;;;;;;;3.03;2.80;;;;;;;;;;5113027;28;20055;-65
2022/07/05 19:55:42;;;;;;;2.97;2.78;;;;;;;;;;5113071;28;20378;-66
2022/07/05 19:58:07;;;;;;;4.70;3.15;;;;;;;;;;5112754;28;20019;-65
2022/07/05 20:00:33;;;;;;;3.10;2.90;;;;;;;;;;5112350;28;20027;-65
2022/07/05 20:02:58;;;;;;;3.58;3.28;;;;;;;;;;5112680;28;20081;-65
2022/07/05 20:05:24;;;;;;;3.25;3.00;;;;;;;;;;5111931;28;20031;-61
2022/07/05 20:07:49;;;;;;;3.85;3.10;;;;;;;;;;5112483;28;20041;-64
2022/07/05 20:10:15;;;;;;;4.70;3.42;;;;;;;;;;5112596;28;20427;-66
2022/07/05 20:12:41;;;;;;;3.40;3.10;;;;;;;;;;5112322;27;20464;-61
2022/07/05 20:15:07;;;;;;;3.42;3.17;;;;;;;;;;5112671;28;20016;-65
2022/07/05 20:17:32;;;;;;;3.72;3.42;;;;;;;;;;5112426;28;20114;-40
2022/07/05 20:19:58;;;;;;;4.43;3.40;;;;;;;;;;5111892;28;20428;-39
2022/07/05 20:22:23;;;;;;;3.30;3.10;;;;;;;;;;5112249;28;20039;-63
2022/07/05 20:24:50;;;;;;;4.15;3.60;;;;;;;;;;5112544;28;20455;-39
2022/07/05 20:27:15;;;;;;;3.60;3.40;;;;;;;;;;5112137;28;20024;-40
2022/07/05 20:29:41;;;;;;;4.55;3.30;;;;;;;;;;5112219;28;20027;-47
2022/07/05 20:32:07;;;;;;;3.60;3.30;;;;;;;;;;5111840;28;20126;-39
2022/07/05 20:34:33;;;;;;;3.92;3.50;;;;;;;;;;5112229;28;20316;-44
2022/07/05 20:37:00;;;;;;;4.13;3.42;;;;;;;;;;5112260;28;20438;-39
2022/07/05 20:39:25;;;;;;;3.90;3.55;;;;;;;;;;5111747;28;20050;-39
2022/07/05 20:41:51;;;;;;;4.22;3.80;;;;;;;;;;5112051;28;20031;-39
2022/07/05 20:44:16;;;;;;;4.60;4.15;;;;;;;;;;5111752;28;20111;-45
2022/07/05 20:46:42;;;;;;;4.75;3.80;;;;;;;;;;5111853;28;20414;-39
2022/07/05 20:49:07;;;;;;;4.80;4.30;;;;;;;;;;5111796;28;20070;-39
2022/07/05 20:51:33;;;;;;;4.35;4.05;;;;;;;;;;5112041;28;20487;-43
2022/07/05 20:53:58;;;;;;;4.38;3.90;;;;;;;;;;5111951;28;20080;-41
2022/07/05 20:56:23;;;;;;;4.88;4.22;;;;;;;;;;5111846;28;20455;-39
2022/07/05 20:58:49;;;;;;;4.03;3.60;;;;;;;;;;5111638;28;20433;-43
2022/07/05 21:01:14;;;;;;;5.07;4.10;;;;;;;;;;5111477;28;20034;-39
2022/07/05 21:03:40;;;;;;;5.05;4.28;;;;;;;;;;5111526;28;20020;-39
2022/07/05 21:06:05;;;;;;;4.82;4.00;;;;;;;;;;5111529;28;20113;-41
2022/07/05 21:08:30;;;;;;;4.43;4.03;;;;;;;;;;5111873;28;20110;-42
2022/07/05 21:10:56;;;;;;;4.40;4.00;;;;;;;;;;5111225;28;20051;-42
2022/07/05 21:13:21;;;;;;;4.70;4.30;;;;;;;;;;5111694;28;20077;-40
2022/07/05 21:15:47;;;;;;;4.30;3.90;;;;;;;;;;5111167;28;20055;-39
2022/07/05 21:18:12;;;;;;;4.50;4.10;;;;;;;;;;5109899;28;20046;-39
2022/07/05 21:20:38;;;;;;;3.97;3.67;;;;;;;;;;5111253;28;20051;-39
2022/07/05 21:23:03;;;;;;;4.70;4.22;;;;;;;;;;5111264;28;20036;-42
2022/07/05 21:25:29;;;;;;;4.57;4.13;;;;;;;;;;5111212;28;20038;-40
2022/07/05 21:27:54;;;;;;;4.32;4.00;;;;;;;;;;5111294;28;20028;-39
2022/07/05 21:30:19;;;;;;;8.15;3.78;;;;;;;;;;5111422;28;20028;-43
2022/07/05 21:32:45;;;;;;;4.20;3.90;;;;;;;;;;5111078;28;20058;-43
2022/07/05 21:35:11;;;;;;;4.30;3.88;;;;;;;;;;5111595;28;20465;-65
2022/07/05 21:37:36;;;;;;;4.38;3.97;;;;;;;;;;5111433;28;20379;-64
2022/07/05 21:40:03;;;;;;;5.00;4.30;;;;;;;;;;5111212;28;20016;-64
2022/07/05 21:42:28;;;;;;;4.35;3.95;;;;;;;;;;5111119;28;20015;-65
2022/07/05 21:44:54;;;;;;;4.18;3.78;;;;;;;;;;5111099;28;20080;-64
2022/07/05 21:47:19;;;;;;;4.35;3.95;;;;;;;;;;5111075;28;20545;-64
2022/07/05 21:49:44;;;;;;;4.82;4.32;;;;;;;;;;5111139;28;20031;-64
2022/07/05 21:52:10;;;;;;;4.28;3.97;;;;;;;;;;5111462;28;20080;-64
2022/07/05 21:54:36;;;;;;;4.30;3.92;;;;;;;;;;5111233;28;20037;-41
2022/07/05 21:57:02;;;;;;;4.75;4.28;;;;;;;;;;5111080;28;20027;-39
2022/07/05 22:04:55;;;;;;;4.45;4.05;;;;;;;;;;5111267;28;20035;-40
2022/07/05 22:07:20;;;;;;;4.60;4.15;;;;;;;;;;5111256;28;20023;-38
2022/07/05 22:09:46;;;;;;;6.93;4.20;;;;;;;;;;5111013;28;20474;-38
2022/07/05 22:12:11;;;;;;;4.50;4.10;;;;;;;;;;5110872;28;20042;-40
2022/07/05 22:14:36;;;;;;;4.22;3.83;;;;;;;;;;5110920;28;20020;-38
2022/07/05 22:17:02;;;;;;;3.97;3.67;;;;;;;;;;5111121;28;20326;-38
2022/07/05 22:19:28;;;;;;;4.20;3.80;;;;;;;;;;5111002;28;20024;-39
2022/07/05 22:21:54;;;;;;;4.70;4.30;;;;;;;;;;5110493;28;20402;-38
2022/07/05 22:24:21;;;;;;;3.88;3.55;;;;;;;;;;5110854;28;20031;-38
2022/07/05 22:26:48;;;;;;;4.30;3.90;;;;;;;;;;5110606;28;20386;-38
2022/07/05 22:29:14;;;;;;;6.18;4.20;;;;;;;;;;5113829;28;20065;-39
2022/07/05 22:31:39;;;;;;;3.90;3.60;;;;;;;;;;5114727;28;20496;-60
2022/07/05 22:34:05;;;;;;;3.97;3.65;;;;;;;;;;5114356;28;20050;-36
2022/07/05 22:36:31;;;;;;;6.07;3.70;;;;;;;;;;5114399;28;20053;-36
2022/07/05 22:38:57;;;;;;;4.13;3.83;;;;;;;;;;5114124;28;20030;-36
2022/07/05 22:41:22;;;;;;;4.35;3.95;;;;;;;;;;5114165;28;20043;-37
2022/07/05 22:43:47;;;;;;;4.07;3.67;;;;;;;;;;5114307;28;20027;-51
2022/07/05 22:46:13;;;;;;;4.43;3.80;;;;;;;;;;5115477;28;20042;-38
2022/07/05 22:48:38;;;;;;;3.83;3.50;;;;;;;;;;5114681;28;20041;-39
2022/07/05 22:51:04;;;;;;;3.55;3.28;;;;;;;;;;5115747;28;20035;-46
2022/07/05 22:53:29;;;;;;;5.07;3.70;;;;;;;;;;5115470;28;20065;-43
2022/07/05 22:55:55;;;;;;;4.07;3.47;;;;;;;;;;5115273;28;20020;-36
2022/07/05 22:58:20;;;;;;;5.00;3.85;;;;;;;;;;5115398;28;20039;-57
2022/07/05 23:00:45;;;;;;;5.53;3.45;;;;;;;;;;5115196;28;20530;-47
2022/07/05 23:03:12;;;;;;;3.10;2.90;;;;;;;;;;5115222;28;20110;-47
2022/07/05 23:05:37;;;;;;;3.83;3.53;;;;;;;;;;5115311;27;20494;-50
2022/07/05 23:08:03;;;;;;;3.45;3.17;;;;;;;;;;5115573;28;20032;-48
2022/07/05 23:10:28;;;;;;;3.67;3.38;;;;;;;;;;5115310;28;20063;-37
2022/07/05 23:12:54;;;;;;;3.22;3.03;;;;;;;;;;5115363;28;20026;-42
2022/07/05 23:15:19;;;;;;;3.70;3.35;;;;;;;;;;5115175;28;20016;-58
2022/07/05 23:17:45;;;;;;;3.80;3.47;;;;;;;;;;5115443;28;20073;-56
2022/07/05 23:20:10;;;;;;;4.10;3.80;;;;;;;;;;5114689;28;20067;-57
2022/07/05 23:22:36;;;;;;;3.97;3.60;;;;;;;;;;5114868;28;20115;-48
2022/07/05 23:25:05;;;;;;;3.80;3.50;;;;;;;;;;5114990;28;20034;-54
2022/07/05 23:27:35;;;;;;;3.58;3.28;;;;;;;;;;5114903;28;20020;-57
2022/07/05 23:30:01;;;;;;;3.60;3.30;;;;;;;;;;5114232;28;20034;-43
2022/07/05 23:32:27;;;;;;;3.40;3.10;;;;;;;;;;5113523;28;20069;-36
2022/07/05 23:34:53;;;;;;;4.53;3.60;;;;;;;;;;5114584;28;20023;-60
2022/07/05 23:37:19;;;;;;;3.17;2.97;;;;;;;;;;5115042;28;20020;-60
2022/07/05 23:39:46;;;;;;;3.10;2.90;;;;;;;;;;5115039;28;20020;-59
2022/07/05 23:42:12;;;;;;;4.18;3.40;;;;;;;;;;5114511;28;20032;-62
2022/07/05 23:44:37;;;;;;;4.30;3.20;;;;;;;;;;5114867;28;20019;-62
2022/07/05 23:47:03;;;;;;;4.25;3.30;;;;;;;;;;5114765;27;20023;-65
2022/07/05 23:49:29;;;;;;;3.53;3.20;;;;;;;;;;5114458;28;20038;-60
2022/07/05 23:51:54;;;;;;;3.13;2.92;;;;;;;;;;5114028;28;20023;-61
2022/07/05 23:54:20;;;;;;;6.20;3.20;;;;;;;;;;5114478;28;20027;-58
2022/07/05 23:56:45;;;;;;;3.40;3.00;;;;;;;;;;5113794;28;20467;-61
2022/07/05 23:59:10;;;;;;;5.88;3.00;;;;;;;;;;5114542;28;20459;-58
